createdAt,value
2023-01-28T00:01:48.919Z,13.80
2023-01-28T00:04:16.720Z,13.80
2023-01-28T00:06:44.617Z,13.70
2023-01-28T00:09:13.166Z,13.70
2023-01-28T00:11:42.544Z,13.80
2023-01-28T00:14:12.359Z,13.80
2023-01-28T00:16:40.355Z,13.80
2023-01-28T00:19:08.310Z,13.70
2023-01-28T00:21:36.129Z,13.90
2023-01-28T00:24:04.175Z,13.80
2023-01-28T00:26:32.025Z,13.90
2023-01-28T00:29:01.140Z,13.60
2023-01-28T00:31:29.676Z,13.50
2023-01-28T00:33:58.494Z,13.70
2023-01-28T00:36:28.039Z,13.80
2023-01-28T00:38:56.992Z,14.20
2023-01-28T00:41:26.999Z,14.20
2023-01-28T00:43:55.280Z,14.30
2023-01-28T00:46:25.269Z,14.10
2023-01-28T00:48:53.480Z,14.10
2023-01-28T00:51:22.203Z,14.20
2023-01-28T00:53:50.977Z,14.20
2023-01-28T00:56:19.757Z,14.10
2023-01-28T00:58:47.951Z,14.20
2023-01-28T01:01:18.759Z,14.10
2023-01-28T01:03:54.310Z,14.30
2023-01-28T01:06:23.195Z,14.20
2023-01-28T01:08:51.611Z,13.80
2023-01-28T01:11:19.801Z,13.90
2023-01-28T01:13:51.981Z,14.10
2023-01-28T01:16:19.870Z,14.30
2023-01-28T01:18:52.206Z,14.30
2023-01-28T01:21:22.374Z,14.20
2023-01-28T01:23:50.402Z,14.30
2023-01-28T01:26:18.706Z,14.20
2023-01-28T01:28:46.988Z,14.20
2023-01-28T01:31:16.339Z,14.20
2023-01-28T01:33:45.195Z,14.30
2023-01-28T01:36:17.060Z,14.10
2023-01-28T01:38:45.763Z,14.10
2023-01-28T01:41:24.338Z,14.10
2023-01-28T01:43:54.120Z,13.90
2023-01-28T01:46:25.958Z,13.90
2023-01-28T01:48:57.156Z,13.90
2023-01-28T01:51:31.919Z,14.00
2023-01-28T01:54:01.322Z,14.20
2023-01-28T01:56:34.345Z,14.20
2023-01-28T01:59:04.654Z,14.30
2023-01-28T02:01:33.497Z,14.30
2023-01-28T02:04:08.213Z,14.20
2023-01-28T02:06:38.789Z,14.20
2023-01-28T02:09:22.789Z,14.40
2023-01-28T02:11:52.589Z,14.40
2023-01-28T02:14:30.702Z,14.40
2023-01-28T02:16:59.836Z,14.40
2023-01-28T02:19:33.230Z,14.40
2023-01-28T02:22:20.928Z,14.10
2023-01-28T02:25:19.257Z,14.00
2023-01-28T02:28:18.756Z,14.00
2023-01-28T02:30:58.439Z,14.10
2023-01-28T02:33:31.807Z,14.10
2023-01-28T02:36:08.903Z,14.20
2023-01-28T02:38:42.076Z,14.10
2023-01-28T02:41:14.837Z,14.30
2023-01-28T02:43:46.002Z,14.30
2023-01-28T02:46:38.865Z,14.40
2023-01-28T02:49:11.845Z,14.20
2023-01-28T02:51:54.055Z,14.20
2023-01-28T02:54:34.373Z,14.10
2023-01-28T02:57:12.137Z,14.20
2023-01-28T02:59:49.426Z,14.10
2023-01-28T03:02:24.621Z,14.00
2023-01-28T03:04:59.350Z,14.10
2023-01-28T03:07:30.426Z,13.90
2023-01-28T03:10:04.232Z,13.70
2023-01-28T03:12:51.234Z,13.80
2023-01-28T03:15:40.848Z,14.00
2023-01-28T03:18:30.187Z,14.00
2023-01-28T03:21:23.003Z,13.80
2023-01-28T03:24:14.922Z,13.80
2023-01-28T03:27:06.415Z,14.00
2023-01-28T03:29:53.580Z,14.30
2023-01-28T03:32:41.859Z,14.30
2023-01-28T03:35:30.054Z,14.40
2023-01-28T03:38:00.152Z,14.40
2023-01-28T03:40:29.685Z,14.40
2023-01-28T03:42:57.704Z,14.40
2023-01-28T03:45:35.775Z,14.40
2023-01-28T03:48:07.997Z,14.40
2023-01-28T03:50:35.868Z,14.40
2023-01-28T03:53:16.380Z,14.40
2023-01-28T03:55:52.352Z,14.40
2023-01-28T03:58:20.898Z,14.50
2023-01-28T04:00:48.768Z,14.50
2023-01-28T04:03:19.726Z,14.40
2023-01-28T04:06:02.546Z,14.40
2023-01-28T04:08:53.020Z,14.50
2023-01-28T04:11:43.792Z,14.40
2023-01-28T04:14:15.153Z,14.50
2023-01-28T04:16:54.758Z,14.60
2023-01-28T04:19:25.737Z,14.50
2023-01-28T04:21:55.019Z,14.40
2023-01-28T04:24:23.678Z,14.40
2023-01-28T04:26:51.628Z,14.50
2023-01-28T04:29:20.195Z,14.50
2023-01-28T04:31:48.920Z,14.60
2023-01-28T04:34:38.328Z,14.60
2023-01-28T04:37:25.609Z,14.60
2023-01-28T04:40:10.281Z,14.50
2023-01-28T04:42:57.182Z,14.40
2023-01-28T04:45:48.216Z,14.20
2023-01-28T04:48:36.434Z,14.00
2023-01-28T04:51:28.745Z,14.30
2023-01-28T04:54:16.430Z,14.50
2023-01-28T04:56:44.526Z,14.60
2023-01-28T04:59:12.449Z,14.50
2023-01-28T05:01:40.401Z,14.50
2023-01-28T05:04:09.728Z,14.60
2023-01-28T05:06:41.005Z,14.50
2023-01-28T05:09:16.001Z,14.50
2023-01-28T05:11:44.422Z,14.50
2023-01-28T05:14:12.295Z,14.50
2023-01-28T05:16:44.474Z,14.50
2023-01-28T05:19:13.025Z,14.60
2023-01-28T05:21:44.451Z,14.60
2023-01-28T05:24:35.561Z,14.60
2023-01-28T05:27:07.439Z,14.60
2023-01-28T05:29:35.326Z,14.60
2023-01-28T05:32:03.157Z,14.60
2023-01-28T05:34:32.020Z,14.50
2023-01-28T05:37:05.168Z,14.40
2023-01-28T05:39:36.392Z,14.50
2023-01-28T05:42:05.289Z,14.40
2023-01-28T05:44:36.251Z,14.50
2023-01-28T05:47:16.831Z,14.50
2023-01-28T05:49:47.591Z,14.60
2023-01-28T05:52:40.397Z,14.70
2023-01-28T05:55:13.894Z,14.70
2023-01-28T05:57:42.520Z,14.70
2023-01-28T06:00:13.493Z,14.60
2023-01-28T06:02:45.918Z,14.60
2023-01-28T06:05:16.250Z,14.60
2023-01-28T06:07:47.459Z,14.50
2023-01-28T06:10:17.937Z,14.50
2023-01-28T06:12:46.229Z,14.50
2023-01-28T06:15:32.710Z,14.50
2023-01-28T06:18:03.550Z,14.50
2023-01-28T06:20:34.474Z,14.40
2023-01-28T06:23:04.045Z,14.40
2023-01-28T06:25:31.926Z,14.40
2023-01-28T06:28:04.517Z,14.50
2023-01-28T06:30:32.466Z,14.50
2023-01-28T06:33:00.293Z,14.40
2023-01-28T06:35:28.118Z,14.40
2023-01-28T06:37:56.039Z,14.40
2023-01-28T06:40:25.928Z,14.40
2023-01-28T06:42:53.717Z,14.40
2023-01-28T06:45:21.595Z,14.40
2023-01-28T06:47:49.419Z,14.50
2023-01-28T06:50:18.181Z,14.40
2023-01-28T06:52:46.030Z,14.50
2023-01-28T06:55:13.905Z,14.50
2023-01-28T06:57:45.130Z,14.50
2023-01-28T07:00:15.834Z,14.60
2023-01-28T07:02:44.033Z,14.70
2023-01-28T07:05:12.226Z,14.70
2023-01-28T07:07:41.842Z,14.60
2023-01-28T07:10:11.413Z,14.50
2023-01-28T07:12:39.485Z,14.50
2023-01-28T07:15:11.009Z,14.50
2023-01-28T07:17:40.699Z,14.50
2023-01-28T07:20:11.335Z,14.10
2023-01-28T07:22:40.273Z,13.30
2023-01-28T07:25:09.257Z,13.30
2023-01-28T07:27:37.341Z,13.30
2023-01-28T07:30:05.821Z,13.20
2023-01-28T07:32:35.069Z,13.10
2023-01-28T07:35:02.926Z,13.30
2023-01-28T07:37:30.989Z,13.00
2023-01-28T07:39:58.770Z,13.00
2023-01-28T07:42:26.543Z,12.90
2023-01-28T07:44:54.571Z,12.90
2023-01-28T07:47:22.482Z,12.70
2023-01-28T07:49:51.657Z,12.70
2023-01-28T07:52:19.495Z,12.60
2023-01-28T07:54:47.291Z,12.50
2023-01-28T07:57:15.119Z,12.40
2023-01-28T07:59:42.982Z,12.50
2023-01-28T08:02:13.284Z,12.70
2023-01-28T08:04:42.810Z,12.50
2023-01-28T08:07:12.660Z,12.50
2023-01-28T08:09:40.763Z,12.60
2023-01-28T08:12:08.699Z,12.60
2023-01-28T08:14:38.558Z,12.50
2023-01-28T08:17:06.438Z,12.30
2023-01-28T08:19:35.803Z,12.50
2023-01-28T08:22:03.667Z,12.60
2023-01-28T08:24:32.784Z,12.70
2023-01-28T08:27:00.634Z,12.90
2023-01-28T08:29:31.476Z,12.70
2023-01-28T08:32:04.040Z,12.40
2023-01-28T08:34:31.957Z,12.60
2023-01-28T08:36:59.769Z,12.70
2023-01-28T08:39:27.699Z,12.70
2023-01-28T08:41:56.803Z,12.80
2023-01-28T08:44:24.591Z,12.60
2023-01-28T08:46:52.442Z,12.60
2023-01-28T08:49:22.155Z,12.80
2023-01-28T08:51:49.976Z,12.20
2023-01-28T08:54:18.218Z,12.20
2023-01-28T08:56:46.058Z,12.60
2023-01-28T08:59:15.423Z,12.60
2023-01-28T09:01:43.226Z,12.70
2023-01-28T09:04:11.049Z,12.90
2023-01-28T09:06:38.883Z,12.90
2023-01-28T09:09:06.693Z,12.60
2023-01-28T09:11:34.474Z,13.70
2023-01-28T09:14:07.084Z,14.90
2023-01-28T09:16:36.857Z,15.60
2023-01-28T09:19:04.686Z,16.00
2023-01-28T09:21:32.532Z,16.30
2023-01-28T09:24:00.477Z,16.40
2023-01-28T09:26:28.380Z,16.50
2023-01-28T09:28:56.221Z,16.60
2023-01-28T09:31:24.154Z,16.70
2023-01-28T09:33:56.623Z,16.80
2023-01-28T09:36:24.613Z,16.80
2023-01-28T09:38:53.096Z,16.90
2023-01-28T09:41:35.718Z,16.90
2023-01-28T09:44:16.385Z,16.90
2023-01-28T09:46:45.661Z,16.90
2023-01-28T09:49:22.094Z,16.80
2023-01-28T09:51:53.454Z,16.70
2023-01-28T09:54:28.565Z,16.80
2023-01-28T09:57:05.307Z,16.70
2023-01-28T09:59:36.290Z,16.80
2023-01-28T10:02:18.309Z,16.80
2023-01-28T10:04:58.329Z,16.90
2023-01-28T10:07:35.783Z,16.90
2023-01-28T10:10:09.629Z,16.90
2023-01-28T10:13:08.722Z,16.90
2023-01-28T10:15:54.714Z,17.00
2023-01-28T10:18:31.722Z,17.10
2023-01-28T10:21:07.849Z,17.10
2023-01-28T10:23:45.074Z,17.10
2023-01-28T10:26:24.099Z,17.10
2023-01-28T10:28:56.856Z,17.20
2023-01-28T10:31:31.338Z,17.20
2023-01-28T10:34:00.072Z,17.20
2023-01-28T10:36:30.091Z,17.20
2023-01-28T10:38:57.963Z,17.20
2023-01-28T10:41:26.744Z,17.20
2023-01-28T10:43:54.575Z,17.20
2023-01-28T10:46:27.687Z,17.20
2023-01-28T10:49:00.976Z,17.30
2023-01-28T10:51:35.312Z,17.30
2023-01-28T10:54:03.626Z,17.30
2023-01-28T10:56:33.039Z,17.20
2023-01-28T10:59:03.325Z,17.20
2023-01-28T11:01:44.922Z,17.20
2023-01-28T11:04:19.856Z,17.20
2023-01-28T11:06:57.461Z,17.20
2023-01-28T11:09:28.051Z,17.20
2023-01-28T11:11:56.018Z,17.20
2023-01-28T11:14:26.736Z,17.10
2023-01-28T11:16:57.520Z,17.10
2023-01-28T11:19:32.411Z,17.10
2023-01-28T11:22:02.047Z,17.10
2023-01-28T11:24:32.840Z,17.10
2023-01-28T11:27:10.895Z,17.10
2023-01-28T11:29:41.994Z,17.10
2023-01-28T11:32:18.915Z,17.10
2023-01-28T11:34:51.150Z,17.10
2023-01-28T11:37:23.558Z,17.10
2023-01-28T11:40:02.353Z,17.20
2023-01-28T11:42:31.368Z,17.10
2023-01-28T11:44:59.178Z,17.20
2023-01-28T11:47:49.428Z,17.10
2023-01-28T11:50:26.315Z,17.10
2023-01-28T11:53:11.547Z,17.20
2023-01-28T11:55:50.281Z,17.20
2023-01-28T11:58:24.009Z,17.20
2023-01-28T12:01:03.556Z,17.20
2023-01-28T12:03:54.328Z,17.20
2023-01-28T12:06:44.093Z,17.20
2023-01-28T12:09:26.194Z,17.30
2023-01-28T12:12:14.808Z,17.20
2023-01-28T12:15:05.738Z,17.30
2023-01-28T12:17:47.364Z,17.30
2023-01-28T12:20:21.542Z,17.60
2023-01-28T12:23:04.500Z,17.70
2023-01-28T12:25:52.215Z,17.80
2023-01-28T12:28:33.997Z,17.70
2023-01-28T12:31:15.286Z,17.70
2023-01-28T12:34:00.006Z,17.70
2023-01-28T12:36:40.951Z,17.70
2023-01-28T12:39:19.530Z,17.60
2023-01-28T12:41:52.750Z,17.70
2023-01-28T12:44:26.643Z,17.70
2023-01-28T12:46:59.433Z,17.60
2023-01-28T12:49:33.421Z,17.60
2023-01-28T12:52:06.103Z,17.60
2023-01-28T12:54:39.089Z,17.60
2023-01-28T12:57:14.043Z,17.60
2023-01-28T12:59:46.862Z,17.60
2023-01-28T13:02:24.700Z,17.60
2023-01-28T13:04:57.986Z,17.60
2023-01-28T13:07:33.128Z,17.60
2023-01-28T13:10:05.592Z,17.60
2023-01-28T13:12:35.012Z,17.60
2023-01-28T13:15:03.811Z,17.60
2023-01-28T13:17:33.437Z,17.60
2023-01-28T13:20:01.730Z,17.60
2023-01-28T13:22:32.724Z,17.60
2023-01-28T13:25:19.767Z,17.60
2023-01-28T13:27:58.580Z,17.60
2023-01-28T13:30:30.255Z,17.60
2023-01-28T13:33:01.603Z,17.60
2023-01-28T13:35:33.799Z,17.60
2023-01-28T13:38:09.123Z,17.60
2023-01-28T13:40:39.033Z,17.60
2023-01-28T13:43:28.468Z,17.60
2023-01-28T13:45:58.119Z,17.60
2023-01-28T13:48:33.243Z,17.60
2023-01-28T13:51:02.097Z,17.60
2023-01-28T13:53:40.710Z,17.60
2023-01-28T13:56:18.408Z,17.50
2023-01-28T13:59:24.874Z,17.50
2023-01-28T14:02:25.818Z,17.40
2023-01-28T14:05:17.260Z,17.50
2023-01-28T14:08:50.821Z,17.60
2023-01-28T14:11:41.303Z,17.50
2023-01-28T14:14:39.858Z,17.50
2023-01-28T14:17:18.391Z,17.50
2023-01-28T14:19:46.919Z,17.50
2023-01-28T14:22:19.808Z,17.50
2023-01-28T14:24:48.749Z,17.50
2023-01-28T14:27:20.755Z,17.50
2023-01-28T14:30:07.878Z,17.50
2023-01-28T14:32:36.764Z,16.50
2023-01-28T14:35:10.119Z,15.30
2023-01-28T14:37:39.035Z,14.70
2023-01-28T14:40:14.169Z,14.40
2023-01-28T14:42:44.843Z,14.20
2023-01-28T14:45:28.036Z,13.80
2023-01-28T14:48:13.617Z,13.60
2023-01-28T14:50:56.380Z,13.60
2023-01-28T14:53:44.968Z,13.50
2023-01-28T14:56:21.180Z,13.30
2023-01-28T14:58:52.402Z,13.30
2023-01-28T15:01:23.877Z,13.20
2023-01-28T15:03:52.223Z,13.10
2023-01-28T15:06:24.004Z,13.10
2023-01-28T15:08:52.275Z,12.50
2023-01-28T15:11:23.418Z,12.00
2023-01-28T15:13:55.668Z,12.40
2023-01-28T15:16:28.974Z,12.50
2023-01-28T15:18:57.586Z,12.70
2023-01-28T15:21:28.579Z,13.30
2023-01-28T15:23:58.105Z,14.80
2023-01-28T15:26:27.887Z,15.70
2023-01-28T15:28:56.986Z,16.20
2023-01-28T15:31:30.019Z,16.50
2023-01-28T15:33:59.736Z,16.70
2023-01-28T15:36:30.036Z,16.80
2023-01-28T15:38:58.678Z,16.80
2023-01-28T15:41:30.944Z,16.90
2023-01-28T15:43:58.835Z,16.90
2023-01-28T15:46:28.207Z,16.90
2023-01-28T15:49:00.189Z,17.00
2023-01-28T15:51:30.873Z,17.00
2023-01-28T15:54:02.712Z,17.00
2023-01-28T15:56:31.658Z,17.10
2023-01-28T15:59:10.421Z,17.10
2023-01-28T16:01:39.681Z,17.10
2023-01-28T16:04:20.548Z,17.10
2023-01-28T16:06:48.533Z,17.20
2023-01-28T16:09:24.414Z,17.10
2023-01-28T16:11:53.021Z,17.20
2023-01-28T16:14:24.775Z,17.10
2023-01-28T16:16:55.615Z,17.10
2023-01-28T16:19:33.028Z,17.20
2023-01-28T16:22:01.759Z,17.30
2023-01-28T16:24:32.098Z,17.30
2023-01-28T16:27:01.774Z,17.30
2023-01-28T16:29:31.107Z,17.40
2023-01-28T16:32:01.116Z,17.40
2023-01-28T16:34:29.097Z,17.40
2023-01-28T16:36:59.887Z,17.40
2023-01-28T16:39:27.682Z,17.50
2023-01-28T16:41:56.836Z,17.50
2023-01-28T16:44:24.648Z,17.50
2023-01-28T16:46:52.522Z,17.50
2023-01-28T16:49:21.831Z,17.50
2023-01-28T16:51:49.731Z,17.50
2023-01-28T16:54:17.912Z,17.50
2023-01-28T16:56:46.807Z,17.50
2023-01-28T16:59:16.233Z,17.50
2023-01-28T17:01:44.522Z,17.40
2023-01-28T17:04:13.260Z,17.40
2023-01-28T17:06:44.326Z,17.40
2023-01-28T17:09:13.634Z,17.40
2023-01-28T17:11:41.949Z,17.40
2023-01-28T17:14:10.107Z,17.40
2023-01-28T17:16:38.477Z,17.40
2023-01-28T17:19:06.615Z,17.40
2023-01-28T17:21:34.522Z,17.40
2023-01-28T17:24:03.846Z,17.50
2023-01-28T17:26:33.789Z,17.40
2023-01-28T17:29:01.834Z,17.50
2023-01-28T17:31:29.905Z,17.40
2023-01-28T17:33:59.717Z,17.50
2023-01-28T17:36:27.968Z,17.60
2023-01-28T17:38:55.909Z,17.60
2023-01-28T17:41:25.085Z,17.50
2023-01-28T17:43:53.672Z,17.50
2023-01-28T17:46:23.033Z,17.40
2023-01-28T17:48:50.857Z,17.40
2023-01-28T17:51:19.227Z,17.40
2023-01-28T17:53:47.809Z,17.40
2023-01-28T17:56:18.035Z,17.40
2023-01-28T17:58:50.237Z,17.40
2023-01-28T18:01:18.363Z,17.40
2023-01-28T18:03:46.232Z,17.50
2023-01-28T18:06:14.309Z,17.40
2023-01-28T18:08:42.109Z,17.50
2023-01-28T18:11:10.579Z,17.40
2023-01-28T18:13:39.182Z,17.40
2023-01-28T18:16:11.705Z,17.40
2023-01-28T18:18:39.523Z,17.50
2023-01-28T18:21:08.299Z,17.50
2023-01-28T18:23:36.071Z,17.50
2023-01-28T18:26:07.195Z,17.50
2023-01-28T18:28:35.022Z,17.50
2023-01-28T18:31:06.075Z,17.50
2023-01-28T18:33:35.537Z,17.50
2023-01-28T18:36:06.573Z,17.50
2023-01-28T18:38:34.734Z,17.50
2023-01-28T18:41:02.688Z,17.50
2023-01-28T18:43:32.546Z,17.40
2023-01-28T18:46:00.626Z,17.50
2023-01-28T18:48:28.833Z,17.40
2023-01-28T18:50:58.391Z,17.50
2023-01-28T18:53:26.561Z,17.50
2023-01-28T18:55:54.501Z,17.50
2023-01-28T18:58:22.323Z,16.70
2023-01-28T19:00:50.472Z,16.00
2023-01-28T19:03:18.399Z,15.60
2023-01-28T19:05:46.553Z,15.50
2023-01-28T19:08:15.718Z,15.40
2023-01-28T19:10:43.554Z,15.40
2023-01-28T19:13:11.484Z,15.40
2023-01-28T19:15:39.222Z,15.30
2023-01-28T19:18:07.096Z,15.20
2023-01-28T19:20:34.895Z,15.20
2023-01-28T19:23:02.708Z,15.10
2023-01-28T19:25:31.868Z,15.10
2023-01-28T19:27:59.658Z,15.00
2023-01-28T19:30:27.486Z,15.10
2023-01-28T19:32:55.303Z,15.20
2023-01-28T19:35:24.056Z,15.00
2023-01-28T19:37:51.847Z,15.10
2023-01-28T19:40:19.855Z,14.80
2023-01-28T19:42:52.576Z,15.10
2023-01-28T19:45:20.732Z,15.00
2023-01-28T19:47:48.748Z,15.00
2023-01-28T19:50:17.308Z,15.00
2023-01-28T19:52:45.104Z,15.00
2023-01-28T19:55:12.919Z,15.10
2023-01-28T19:57:40.786Z,14.70
2023-01-28T20:00:12.034Z,14.60
2023-01-28T20:02:40.032Z,14.60
2023-01-28T20:05:11.365Z,14.60
2023-01-28T20:07:39.134Z,14.70
2023-01-28T20:10:07.760Z,14.50
2023-01-28T20:12:35.557Z,14.80
2023-01-28T20:15:03.410Z,14.70
2023-01-28T20:17:32.646Z,14.80
2023-01-28T20:20:00.507Z,14.90
2023-01-28T20:22:28.345Z,15.00
2023-01-28T20:24:57.115Z,14.80
2023-01-28T20:27:25.265Z,14.90
2023-01-28T20:29:53.322Z,14.70
2023-01-28T20:32:22.987Z,14.60
2023-01-28T20:34:52.541Z,14.70
2023-01-28T20:37:20.922Z,14.70
2023-01-28T20:39:48.812Z,14.70
2023-01-28T20:42:16.768Z,14.80
2023-01-28T20:44:44.615Z,14.60
2023-01-28T20:47:12.446Z,14.80
2023-01-28T20:49:40.295Z,15.00
2023-01-28T20:52:09.459Z,14.80
2023-01-28T20:54:37.261Z,14.80
2023-01-28T20:57:05.146Z,14.70
2023-01-28T20:59:32.929Z,14.80
2023-01-28T21:02:01.206Z,14.80
2023-01-28T21:04:29.029Z,14.70
2023-01-28T21:06:56.810Z,14.80
2023-01-28T21:09:27.717Z,14.80
2023-01-28T21:11:55.524Z,14.80
2023-01-28T21:14:23.433Z,14.80
2023-01-28T21:16:52.969Z,14.80
2023-01-28T21:19:20.891Z,14.80
2023-01-28T21:21:48.691Z,14.90
2023-01-28T21:24:16.644Z,14.70
2023-01-28T21:26:45.849Z,14.80
2023-01-28T21:29:14.520Z,14.90
2023-01-28T21:31:42.557Z,14.70
2023-01-28T21:34:10.752Z,14.60
2023-01-28T21:36:38.585Z,14.60
2023-01-28T21:39:06.537Z,14.70
2023-01-28T21:41:34.575Z,14.70
2023-01-28T21:44:03.711Z,14.70
2023-01-28T21:46:33.170Z,14.90
2023-01-28T21:49:02.638Z,14.90
2023-01-28T21:51:39.081Z,15.10
2023-01-28T21:54:08.757Z,15.00
2023-01-28T21:56:36.615Z,15.10
2023-01-28T21:59:23.229Z,15.10
2023-01-28T22:01:51.052Z,15.10
2023-01-28T22:04:18.889Z,15.20
2023-01-28T22:06:46.795Z,15.20
2023-01-28T22:09:15.043Z,15.10
2023-01-28T22:11:44.131Z,15.00
2023-01-28T22:14:14.114Z,15.20
2023-01-28T22:16:42.538Z,15.20
2023-01-28T22:19:11.087Z,15.20
2023-01-28T22:21:41.686Z,15.00
2023-01-28T22:24:12.339Z,15.10
2023-01-28T22:26:40.511Z,15.20
2023-01-28T22:29:09.298Z,15.20
2023-01-28T22:31:38.782Z,15.20
2023-01-28T22:34:07.237Z,15.10
2023-01-28T22:36:37.129Z,15.10
2023-01-28T22:39:07.910Z,15.00
2023-01-28T22:41:35.902Z,15.10
2023-01-28T22:44:04.255Z,15.10
2023-01-28T22:46:33.455Z,15.10
2023-01-28T22:49:03.197Z,15.20
2023-01-28T22:51:33.357Z,15.30
2023-01-28T22:54:01.183Z,15.10
2023-01-28T22:56:30.797Z,15.10
2023-01-28T22:58:59.884Z,15.20
2023-01-28T23:01:28.813Z,15.10
2023-01-28T23:03:56.748Z,15.30
2023-01-28T23:06:27.637Z,15.20
2023-01-28T23:08:56.143Z,15.40
2023-01-28T23:11:28.011Z,15.40
2023-01-28T23:14:16.250Z,15.10
2023-01-28T23:17:01.771Z,15.30
2023-01-28T23:19:47.092Z,15.30
2023-01-28T23:22:37.419Z,15.30
2023-01-28T23:25:05.853Z,15.20
2023-01-28T23:27:33.891Z,15.20
2023-01-28T23:30:01.747Z,15.40
2023-01-28T23:32:29.661Z,15.40
2023-01-28T23:34:57.496Z,15.50
2023-01-28T23:37:26.590Z,15.30
2023-01-28T23:39:54.437Z,15.40
2023-01-28T23:42:23.462Z,15.30
2023-01-28T23:44:51.239Z,15.40
2023-01-28T23:47:19.549Z,15.30
2023-01-28T23:49:47.386Z,15.30
2023-01-28T23:52:15.210Z,15.40
2023-01-28T23:54:44.341Z,15.40
2023-01-28T23:57:12.230Z,15.40
2023-01-28T23:59:40.075Z,15.30
